sensor_id;sensor_type;location;lat;lon;timestamp;P1;durP1;ratioP1;P2;durP2;ratioP2
77870;SDS011;67067;46.850;7.578;2023-03-31T00:00:06;10.02;;;4.10;;
77870;SDS011;67067;46.850;7.578;2023-03-31T00:01:12;8.65;;;4.00;;
77870;SDS011;67067;46.850;7.578;2023-03-31T00:03:15;11.93;;;4.30;;
77870;SDS011;67067;46.850;7.578;2023-03-31T00:04:24;10.60;;;4.15;;
77870;SDS011;67067;46.850;7.578;2023-03-31T00:06:28;10.88;;;4.53;;
77870;SDS011;67067;46.850;7.578;2023-03-31T00:07:30;8.88;;;3.88;;
77870;SDS011;67067;46.850;7.578;2023-03-31T00:09:37;6.40;;;3.60;;
77870;SDS011;67067;46.850;7.578;2023-03-31T00:10:44;8.95;;;4.30;;
77870;SDS011;67067;46.850;7.578;2023-03-31T00:11:49;10.95;;;4.28;;
77870;SDS011;67067;46.850;7.578;2023-03-31T00:12:52;7.80;;;3.83;;
77870;SDS011;67067;46.850;7.578;2023-03-31T00:13:54;9.73;;;4.20;;
77870;SDS011;67067;46.850;7.578;2023-03-31T00:14:55;7.22;;;3.90;;
77870;SDS011;67067;46.850;7.578;2023-03-31T00:17:03;8.70;;;3.90;;
77870;SDS011;67067;46.850;7.578;2023-03-31T00:18:07;11.00;;;4.57;;
77870;SDS011;67067;46.850;7.578;2023-03-31T00:19:09;9.85;;;4.53;;
77870;SDS011;67067;46.850;7.578;2023-03-31T00:20:18;8.20;;;4.15;;
77870;SDS011;67067;46.850;7.578;2023-03-31T00:21:24;12.00;;;4.47;;
77870;SDS011;67067;46.850;7.578;2023-03-31T00:22:26;8.93;;;4.20;;
77870;SDS011;67067;46.850;7.578;2023-03-31T00:23:27;8.25;;;4.13;;
77870;SDS011;67067;46.850;7.578;2023-03-31T00:25:35;8.10;;;3.83;;
77870;SDS011;67067;46.850;7.578;2023-03-31T00:26:40;9.55;;;4.18;;
77870;SDS011;67067;46.850;7.578;2023-03-31T00:27:42;11.52;;;4.57;;
77870;SDS011;67067;46.850;7.578;2023-03-31T00:28:44;8.52;;;4.30;;
77870;SDS011;67067;46.850;7.578;2023-03-31T00:29:46;11.00;;;4.65;;
77870;SDS011;67067;46.850;7.578;2023-03-31T00:30:51;7.68;;;4.05;;
77870;SDS011;67067;46.850;7.578;2023-03-31T00:31:54;9.85;;;4.30;;
77870;SDS011;67067;46.850;7.578;2023-03-31T00:32:56;12.27;;;4.63;;
77870;SDS011;67067;46.850;7.578;2023-03-31T00:33:58;11.73;;;4.40;;
77870;SDS011;67067;46.850;7.578;2023-03-31T00:35:00;6.80;;;3.80;;
77870;SDS011;67067;46.850;7.578;2023-03-31T00:36:03;9.57;;;4.22;;
77870;SDS011;67067;46.850;7.578;2023-03-31T00:37:08;8.02;;;4.10;;
77870;SDS011;67067;46.850;7.578;2023-03-31T00:38:10;8.60;;;3.97;;
77870;SDS011;67067;46.850;7.578;2023-03-31T00:39:15;8.35;;;3.75;;
77870;SDS011;67067;46.850;7.578;2023-03-31T00:40:18;8.77;;;3.83;;
77870;SDS011;67067;46.850;7.578;2023-03-31T00:41:20;12.43;;;4.43;;
77870;SDS011;67067;46.850;7.578;2023-03-31T00:42:22;8.45;;;4.03;;
77870;SDS011;67067;46.850;7.578;2023-03-31T00:43:34;10.95;;;4.38;;
77870;SDS011;67067;46.850;7.578;2023-03-31T00:45:16;7.70;;;3.70;;
77870;SDS011;67067;46.850;7.578;2023-03-31T00:47:20;7.85;;;4.30;;
77870;SDS011;67067;46.850;7.578;2023-03-31T00:48:23;8.93;;;4.03;;
77870;SDS011;67067;46.850;7.578;2023-03-31T00:49:29;9.13;;;4.05;;
77870;SDS011;67067;46.850;7.578;2023-03-31T00:50:39;15.27;;;4.63;;
77870;SDS011;67067;46.850;7.578;2023-03-31T00:51:47;9.75;;;4.07;;
77870;SDS011;67067;46.850;7.578;2023-03-31T00:52:54;6.03;;;3.97;;
77870;SDS011;67067;46.850;7.578;2023-03-31T00:53:59;8.25;;;4.20;;
77870;SDS011;67067;46.850;7.578;2023-03-31T00:55:07;11.30;;;4.60;;
77870;SDS011;67067;46.850;7.578;2023-03-31T00:56:15;10.60;;;4.50;;
77870;SDS011;67067;46.850;7.578;2023-03-31T00:57:18;6.55;;;4.28;;
77870;SDS011;67067;46.850;7.578;2023-03-31T00:58:21;11.60;;;4.57;;
77870;SDS011;67067;46.850;7.578;2023-03-31T00:59:29;10.40;;;4.40;;
77870;SDS011;67067;46.850;7.578;2023-03-31T01:00:35;12.85;;;4.55;;
77870;SDS011;67067;46.850;7.578;2023-03-31T01:02:44;9.73;;;4.25;;
77870;SDS011;67067;46.850;7.578;2023-03-31T01:03:56;8.75;;;3.95;;
77870;SDS011;67067;46.850;7.578;2023-03-31T01:04:59;8.10;;;3.95;;
77870;SDS011;67067;46.850;7.578;2023-03-31T01:06:04;8.07;;;4.13;;
77870;SDS011;67067;46.850;7.578;2023-03-31T01:07:15;11.10;;;4.35;;
77870;SDS011;67067;46.850;7.578;2023-03-31T01:08:24;7.53;;;3.78;;
77870;SDS011;67067;46.850;7.578;2023-03-31T01:09:30;10.55;;;4.32;;
77870;SDS011;67067;46.850;7.578;2023-03-31T01:10:36;9.27;;;4.50;;
77870;SDS011;67067;46.850;7.578;2023-03-31T01:11:44;11.38;;;4.28;;
77870;SDS011;67067;46.850;7.578;2023-03-31T01:12:49;9.20;;;4.75;;
77870;SDS011;67067;46.850;7.578;2023-03-31T01:13:54;12.23;;;4.60;;
77870;SDS011;67067;46.850;7.578;2023-03-31T01:14:57;8.32;;;4.28;;
77870;SDS011;67067;46.850;7.578;2023-03-31T01:16:00;9.90;;;4.50;;
77870;SDS011;67067;46.850;7.578;2023-03-31T01:17:02;6.88;;;4.32;;
77870;SDS011;67067;46.850;7.578;2023-03-31T01:18:06;7.85;;;4.30;;
77870;SDS011;67067;46.850;7.578;2023-03-31T01:19:23;8.40;;;4.10;;
77870;SDS011;67067;46.850;7.578;2023-03-31T01:29:53;22.38;;;9.00;;
77870;SDS011;67067;46.850;7.578;2023-03-31T01:36:44;9.30;;;4.70;;
77870;SDS011;67067;46.850;7.578;2023-03-31T01:46:01;6.50;;;4.07;;
77870;SDS011;67067;46.850;7.578;2023-03-31T01:48:28;8.90;;;4.43;;
77870;SDS011;67067;46.850;7.578;2023-03-31T01:50:45;12.32;;;4.40;;
77870;SDS011;67067;46.850;7.578;2023-03-31T01:55:24;10.38;;;4.47;;
77870;SDS011;67067;46.850;7.578;2023-03-31T01:56:33;11.82;;;4.30;;
77870;SDS011;67067;46.850;7.578;2023-03-31T01:57:40;8.60;;;4.20;;
77870;SDS011;67067;46.850;7.578;2023-03-31T02:00:14;11.88;;;4.28;;
77870;SDS011;67067;46.850;7.578;2023-03-31T02:04:00;9.50;;;4.50;;
77870;SDS011;67067;46.850;7.578;2023-03-31T02:05:09;8.30;;;4.30;;
77870;SDS011;67067;46.850;7.578;2023-03-31T02:06:21;6.78;;;4.40;;
77870;SDS011;67067;46.850;7.578;2023-03-31T02:07:34;11.43;;;4.65;;
77870;SDS011;67067;46.850;7.578;2023-03-31T02:08:44;8.90;;;4.32;;
77870;SDS011;67067;46.850;7.578;2023-03-31T02:09:55;8.68;;;4.50;;
77870;SDS011;67067;46.850;7.578;2023-03-31T02:10:59;8.82;;;4.70;;
77870;SDS011;67067;46.850;7.578;2023-03-31T02:12:03;7.65;;;4.15;;
77870;SDS011;67067;46.850;7.578;2023-03-31T02:13:08;10.85;;;4.78;;
77870;SDS011;67067;46.850;7.578;2023-03-31T02:14:17;9.93;;;4.70;;
77870;SDS011;67067;46.850;7.578;2023-03-31T02:15:29;8.52;;;4.35;;
77870;SDS011;67067;46.850;7.578;2023-03-31T02:16:39;6.90;;;4.53;;
77870;SDS011;67067;46.850;7.578;2023-03-31T02:17:48;11.35;;;4.40;;
77870;SDS011;67067;46.850;7.578;2023-03-31T02:18:56;7.35;;;4.28;;
77870;SDS011;67067;46.850;7.578;2023-03-31T02:20:04;11.73;;;4.82;;
77870;SDS011;67067;46.850;7.578;2023-03-31T02:21:09;11.77;;;4.80;;
77870;SDS011;67067;46.850;7.578;2023-03-31T02:22:12;7.53;;;4.22;;
77870;SDS011;67067;46.850;7.578;2023-03-31T02:23:18;7.88;;;4.47;;
77870;SDS011;67067;46.850;7.578;2023-03-31T02:24:24;11.23;;;4.70;;
77870;SDS011;67067;46.850;7.578;2023-03-31T02:25:31;13.85;;;5.03;;
77870;SDS011;67067;46.850;7.578;2023-03-31T02:28:14;10.10;;;4.45;;
77870;SDS011;67067;46.850;7.578;2023-03-31T02:29:21;6.72;;;4.50;;
77870;SDS011;67067;46.850;7.578;2023-03-31T02:30:24;10.70;;;4.43;;
77870;SDS011;67067;46.850;7.578;2023-03-31T02:32:44;9.45;;;4.68;;
77870;SDS011;67067;46.850;7.578;2023-03-31T02:33:48;10.60;;;4.45;;
77870;SDS011;67067;46.850;7.578;2023-03-31T02:34:50;9.35;;;4.75;;
77870;SDS011;67067;46.850;7.578;2023-03-31T02:35:51;8.27;;;4.28;;
77870;SDS011;67067;46.850;7.578;2023-03-31T02:36:55;8.70;;;4.32;;
77870;SDS011;67067;46.850;7.578;2023-03-31T02:39:03;11.32;;;4.38;;
77870;SDS011;67067;46.850;7.578;2023-03-31T02:40:10;9.27;;;4.38;;
77870;SDS011;67067;46.850;7.578;2023-03-31T02:41:19;8.65;;;4.47;;
77870;SDS011;67067;46.850;7.578;2023-03-31T02:42:21;13.13;;;4.97;;
77870;SDS011;67067;46.850;7.578;2023-03-31T02:43:25;10.15;;;4.63;;
77870;SDS011;67067;46.850;7.578;2023-03-31T02:44:27;11.10;;;5.13;;
77870;SDS011;67067;46.850;7.578;2023-03-31T02:45:36;10.88;;;4.75;;
77870;SDS011;67067;46.850;7.578;2023-03-31T02:46:38;11.60;;;4.40;;
77870;SDS011;67067;46.850;7.578;2023-03-31T02:47:41;10.68;;;4.45;;
77870;SDS011;67067;46.850;7.578;2023-03-31T02:48:49;9.25;;;4.63;;
77870;SDS011;67067;46.850;7.578;2023-03-31T02:49:57;10.18;;;4.97;;
77870;SDS011;67067;46.850;7.578;2023-03-31T02:56:18;12.15;;;4.90;;
77870;SDS011;67067;46.850;7.578;2023-03-31T03:01:24;11.05;;;4.85;;
77870;SDS011;67067;46.850;7.578;2023-03-31T03:04:08;7.63;;;4.72;;
77870;SDS011;67067;46.850;7.578;2023-03-31T03:14:36;10.63;;;4.78;;
77870;SDS011;67067;46.850;7.578;2023-03-31T03:18:19;9.77;;;4.38;;
77870;SDS011;67067;46.850;7.578;2023-03-31T03:19:23;13.35;;;4.55;;
77870;SDS011;67067;46.850;7.578;2023-03-31T03:21:27;8.88;;;3.50;;
77870;SDS011;67067;46.850;7.578;2023-03-31T03:22:29;9.18;;;3.33;;
77870;SDS011;67067;46.850;7.578;2023-03-31T03:23:31;7.55;;;3.33;;
77870;SDS011;67067;46.850;7.578;2023-03-31T03:24:33;5.93;;;2.70;;
77870;SDS011;67067;46.850;7.578;2023-03-31T03:26:36;4.35;;;2.60;;
77870;SDS011;67067;46.850;7.578;2023-03-31T03:27:38;5.43;;;2.58;;
77870;SDS011;67067;46.850;7.578;2023-03-31T03:28:41;11.05;;;2.80;;
77870;SDS011;67067;46.850;7.578;2023-03-31T03:29:46;4.80;;;2.55;;
77870;SDS011;67067;46.850;7.578;2023-03-31T03:31:50;6.13;;;2.60;;
77870;SDS011;67067;46.850;7.578;2023-03-31T03:32:52;3.10;;;2.53;;
77870;SDS011;67067;46.850;7.578;2023-03-31T03:33:54;6.05;;;2.60;;
77870;SDS011;67067;46.850;7.578;2023-03-31T03:34:56;7.25;;;2.30;;
77870;SDS011;67067;46.850;7.578;2023-03-31T03:36:03;5.15;;;2.60;;
77870;SDS011;67067;46.850;7.578;2023-03-31T03:37:06;5.07;;;2.30;;
77870;SDS011;67067;46.850;7.578;2023-03-31T03:38:08;5.25;;;2.17;;
77870;SDS011;67067;46.850;7.578;2023-03-31T03:39:09;5.30;;;2.55;;
77870;SDS011;67067;46.850;7.578;2023-03-31T03:41:13;7.10;;;2.78;;
77870;SDS011;67067;46.850;7.578;2023-03-31T03:42:14;7.22;;;2.85;;
77870;SDS011;67067;46.850;7.578;2023-03-31T03:43:17;7.10;;;2.80;;
77870;SDS011;67067;46.850;7.578;2023-03-31T03:44:21;5.38;;;2.92;;
77870;SDS011;67067;46.850;7.578;2023-03-31T03:46:24;7.38;;;2.45;;
77870;SDS011;67067;46.850;7.578;2023-03-31T03:47:30;4.20;;;2.35;;
77870;SDS011;67067;46.850;7.578;2023-03-31T03:49:33;5.27;;;2.47;;
77870;SDS011;67067;46.850;7.578;2023-03-31T03:51:39;4.57;;;2.80;;
77870;SDS011;67067;46.850;7.578;2023-03-31T03:53:44;5.55;;;2.80;;
77870;SDS011;67067;46.850;7.578;2023-03-31T03:55:48;6.47;;;2.90;;
77870;SDS011;67067;46.850;7.578;2023-03-31T03:56:50;5.28;;;2.70;;
77870;SDS011;67067;46.850;7.578;2023-03-31T03:58:53;9.63;;;3.17;;
77870;SDS011;67067;46.850;7.578;2023-03-31T03:59:55;4.03;;;2.83;;
77870;SDS011;67067;46.850;7.578;2023-03-31T04:00:56;6.63;;;3.08;;
77870;SDS011;67067;46.850;7.578;2023-03-31T04:01:59;5.20;;;2.78;;
77870;SDS011;67067;46.850;7.578;2023-03-31T04:03:03;4.50;;;2.53;;
77870;SDS011;67067;46.850;7.578;2023-03-31T04:04:05;6.18;;;2.67;;
77870;SDS011;67067;46.850;7.578;2023-03-31T04:05:07;6.72;;;2.50;;
77870;SDS011;67067;46.850;7.578;2023-03-31T04:06:10;6.18;;;2.35;;
77870;SDS011;67067;46.850;7.578;2023-03-31T04:07:14;6.50;;;2.53;;
77870;SDS011;67067;46.850;7.578;2023-03-31T04:08:16;8.68;;;2.78;;
77870;SDS011;67067;46.850;7.578;2023-03-31T04:09:18;5.03;;;2.17;;
77870;SDS011;67067;46.850;7.578;2023-03-31T04:10:20;4.97;;;2.30;;
77870;SDS011;67067;46.850;7.578;2023-03-31T04:11:25;7.97;;;3.10;;
77870;SDS011;67067;46.850;7.578;2023-03-31T04:12:28;8.02;;;2.20;;
77870;SDS011;67067;46.850;7.578;2023-03-31T04:14:31;5.65;;;2.50;;
77870;SDS011;67067;46.850;7.578;2023-03-31T04:15:35;5.15;;;2.78;;
77870;SDS011;67067;46.850;7.578;2023-03-31T04:17:43;5.55;;;2.67;;
77870;SDS011;67067;46.850;7.578;2023-03-31T04:18:51;5.97;;;2.47;;
77870;SDS011;67067;46.850;7.578;2023-03-31T04:20:00;3.95;;;2.45;;
77870;SDS011;67067;46.850;7.578;2023-03-31T04:21:04;4.10;;;2.42;;
77870;SDS011;67067;46.850;7.578;2023-03-31T04:23:11;5.60;;;2.17;;
77870;SDS011;67067;46.850;7.578;2023-03-31T04:24:15;5.55;;;2.40;;
77870;SDS011;67067;46.850;7.578;2023-03-31T04:25:22;6.72;;;2.38;;
77870;SDS011;67067;46.850;7.578;2023-03-31T04:27:31;5.75;;;2.70;;
77870;SDS011;67067;46.850;7.578;2023-03-31T04:28:35;6.97;;;2.40;;
77870;SDS011;67067;46.850;7.578;2023-03-31T04:29:38;5.45;;;2.78;;
77870;SDS011;67067;46.850;7.578;2023-03-31T04:35:32;4.65;;;2.50;;
77870;SDS011;67067;46.850;7.578;2023-03-31T04:36:53;7.60;;;2.20;;
77870;SDS011;67067;46.850;7.578;2023-03-31T04:37:56;6.90;;;2.67;;
77870;SDS011;67067;46.850;7.578;2023-03-31T04:39:02;5.32;;;2.60;;
77870;SDS011;67067;46.850;7.578;2023-03-31T04:41:10;6.05;;;2.20;;
77870;SDS011;67067;46.850;7.578;2023-03-31T04:42:12;7.18;;;2.58;;
77870;SDS011;67067;46.850;7.578;2023-03-31T04:43:17;5.07;;;2.65;;
77870;SDS011;67067;46.850;7.578;2023-03-31T04:44:20;7.65;;;2.40;;
77870;SDS011;67067;46.850;7.578;2023-03-31T04:46:23;5.67;;;2.60;;
77870;SDS011;67067;46.850;7.578;2023-03-31T04:47:28;5.95;;;2.90;;
77870;SDS011;67067;46.850;7.578;2023-03-31T04:48:30;4.50;;;2.30;;
77870;SDS011;67067;46.850;7.578;2023-03-31T04:49:34;5.45;;;2.75;;
77870;SDS011;67067;46.850;7.578;2023-03-31T04:50:37;5.07;;;2.60;;
77870;SDS011;67067;46.850;7.578;2023-03-31T04:51:40;4.57;;;2.45;;
77870;SDS011;67067;46.850;7.578;2023-03-31T04:52:42;6.40;;;2.55;;
77870;SDS011;67067;46.850;7.578;2023-03-31T04:53:44;8.05;;;2.55;;
77870;SDS011;67067;46.850;7.578;2023-03-31T04:54:47;3.03;;;2.45;;
77870;SDS011;67067;46.850;7.578;2023-03-31T04:55:49;5.65;;;2.75;;
77870;SDS011;67067;46.850;7.578;2023-03-31T04:56:51;4.65;;;2.55;;
77870;SDS011;67067;46.850;7.578;2023-03-31T04:58:54;5.32;;;2.60;;
77870;SDS011;67067;46.850;7.578;2023-03-31T05:00:57;5.50;;;3.63;;
77870;SDS011;67067;46.850;7.578;2023-03-31T05:01:59;5.97;;;3.80;;
77870;SDS011;67067;46.850;7.578;2023-03-31T05:03:01;6.50;;;3.90;;
77870;SDS011;67067;46.850;7.578;2023-03-31T05:04:03;6.03;;;3.85;;
77870;SDS011;67067;46.850;7.578;2023-03-31T05:05:06;4.53;;;3.35;;
77870;SDS011;67067;46.850;7.578;2023-03-31T05:06:08;8.90;;;4.07;;
77870;SDS011;67067;46.850;7.578;2023-03-31T05:07:09;6.30;;;3.90;;
77870;SDS011;67067;46.850;7.578;2023-03-31T05:09:15;10.20;;;4.13;;
77870;SDS011;67067;46.850;7.578;2023-03-31T05:10:17;12.55;;;4.47;;
77870;SDS011;67067;46.850;7.578;2023-03-31T05:11:21;8.13;;;3.90;;
77870;SDS011;67067;46.850;7.578;2023-03-31T05:12:23;10.50;;;3.80;;
77870;SDS011;67067;46.850;7.578;2023-03-31T05:13:26;5.75;;;3.80;;
77870;SDS011;67067;46.850;7.578;2023-03-31T05:14:27;6.97;;;4.13;;
77870;SDS011;67067;46.850;7.578;2023-03-31T05:15:31;8.48;;;3.95;;
77870;SDS011;67067;46.850;7.578;2023-03-31T05:16:35;10.35;;;3.90;;
77870;SDS011;67067;46.850;7.578;2023-03-31T05:17:37;6.28;;;3.85;;
77870;SDS011;67067;46.850;7.578;2023-03-31T05:19:41;7.55;;;3.50;;
77870;SDS011;67067;46.850;7.578;2023-03-31T05:20:42;7.22;;;3.20;;
77870;SDS011;67067;46.850;7.578;2023-03-31T05:21:44;6.55;;;3.10;;
77870;SDS011;67067;46.850;7.578;2023-03-31T05:22:46;8.13;;;3.60;;
77870;SDS011;67067;46.850;7.578;2023-03-31T05:23:48;7.22;;;4.03;;
77870;SDS011;67067;46.850;7.578;2023-03-31T05:24:51;5.40;;;3.35;;
77870;SDS011;67067;46.850;7.578;2023-03-31T05:25:53;7.60;;;3.65;;
77870;SDS011;67067;46.850;7.578;2023-03-31T05:28:59;8.65;;;3.38;;
77870;SDS011;67067;46.850;7.578;2023-03-31T05:30:02;5.85;;;3.17;;
77870;SDS011;67067;46.850;7.578;2023-03-31T05:31:05;6.68;;;3.38;;
77870;SDS011;67067;46.850;7.578;2023-03-31T05:32:07;5.97;;;3.30;;
77870;SDS011;67067;46.850;7.578;2023-03-31T05:33:09;8.90;;;3.55;;
77870;SDS011;67067;46.850;7.578;2023-03-31T05:34:11;7.47;;;3.50;;
77870;SDS011;67067;46.850;7.578;2023-03-31T05:35:13;5.60;;;3.40;;
77870;SDS011;67067;46.850;7.578;2023-03-31T05:36:16;5.22;;;3.40;;
77870;SDS011;67067;46.850;7.578;2023-03-31T05:37:22;6.18;;;3.30;;
77870;SDS011;67067;46.850;7.578;2023-03-31T05:38:25;5.43;;;3.10;;
77870;SDS011;67067;46.850;7.578;2023-03-31T05:39:29;7.45;;;3.30;;
77870;SDS011;67067;46.850;7.578;2023-03-31T05:40:33;5.55;;;3.20;;
77870;SDS011;67067;46.850;7.578;2023-03-31T05:42:37;5.72;;;3.47;;
77870;SDS011;67067;46.850;7.578;2023-03-31T05:43:39;6.15;;;3.70;;
77870;SDS011;67067;46.850;7.578;2023-03-31T05:44:41;5.35;;;3.50;;
77870;SDS011;67067;46.850;7.578;2023-03-31T05:46:48;6.95;;;3.60;;
77870;SDS011;67067;46.850;7.578;2023-03-31T05:47:52;8.80;;;3.78;;
77870;SDS011;67067;46.850;7.578;2023-03-31T05:48:57;6.25;;;3.80;;
77870;SDS011;67067;46.850;7.578;2023-03-31T05:51:01;11.20;;;4.45;;
77870;SDS011;67067;46.850;7.578;2023-03-31T05:53:05;6.05;;;4.32;;
77870;SDS011;67067;46.850;7.578;2023-03-31T05:54:07;10.48;;;4.57;;
77870;SDS011;67067;46.850;7.578;2023-03-31T05:55:09;7.95;;;4.40;;
77870;SDS011;67067;46.850;7.578;2023-03-31T05:57:12;9.70;;;4.63;;
77870;SDS011;67067;46.850;7.578;2023-03-31T05:59:16;11.02;;;5.00;;
77870;SDS011;67067;46.850;7.578;2023-03-31T06:00:18;8.18;;;4.68;;
77870;SDS011;67067;46.850;7.578;2023-03-31T06:01:20;16.55;;;6.38;;
77870;SDS011;67067;46.850;7.578;2023-03-31T06:02:25;14.70;;;6.95;;
77870;SDS011;67067;46.850;7.578;2023-03-31T06:03:28;14.35;;;6.65;;
77870;SDS011;67067;46.850;7.578;2023-03-31T06:04:30;13.70;;;7.32;;
77870;SDS011;67067;46.850;7.578;2023-03-31T06:05:33;15.57;;;7.40;;
77870;SDS011;67067;46.850;7.578;2023-03-31T06:06:35;16.52;;;7.78;;
77870;SDS011;67067;46.850;7.578;2023-03-31T06:07:38;17.02;;;7.50;;
77870;SDS011;67067;46.850;7.578;2023-03-31T06:09:42;14.63;;;7.53;;
77870;SDS011;67067;46.850;7.578;2023-03-31T06:11:45;17.35;;;8.00;;
77870;SDS011;67067;46.850;7.578;2023-03-31T06:12:50;15.60;;;8.00;;
77870;SDS011;67067;46.850;7.578;2023-03-31T06:13:55;17.73;;;8.75;;
77870;SDS011;67067;46.850;7.578;2023-03-31T06:15:59;22.05;;;10.43;;
77870;SDS011;67067;46.850;7.578;2023-03-31T06:17:05;15.93;;;9.15;;
77870;SDS011;67067;46.850;7.578;2023-03-31T06:18:07;17.55;;;9.63;;
77870;SDS011;67067;46.850;7.578;2023-03-31T06:19:12;19.33;;;10.13;;
77870;SDS011;67067;46.850;7.578;2023-03-31T06:20:14;17.58;;;9.75;;
77870;SDS011;67067;46.850;7.578;2023-03-31T06:21:28;18.60;;;9.90;;
77870;SDS011;67067;46.850;7.578;2023-03-31T06:22:30;18.17;;;9.65;;
77870;SDS011;67067;46.850;7.578;2023-03-31T06:23:35;17.13;;;9.68;;
77870;SDS011;67067;46.850;7.578;2023-03-31T06:24:36;21.55;;;10.50;;
77870;SDS011;67067;46.850;7.578;2023-03-31T06:25:40;20.75;;;10.07;;
77870;SDS011;67067;46.850;7.578;2023-03-31T06:26:51;20.88;;;10.35;;
77870;SDS011;67067;46.850;7.578;2023-03-31T06:27:56;18.92;;;9.90;;
77870;SDS011;67067;46.850;7.578;2023-03-31T06:28:58;21.80;;;10.65;;
77870;SDS011;67067;46.850;7.578;2023-03-31T06:31:05;17.77;;;9.93;;
77870;SDS011;67067;46.850;7.578;2023-03-31T06:32:09;19.02;;;10.07;;
77870;SDS011;67067;46.850;7.578;2023-03-31T06:33:13;22.10;;;11.25;;
77870;SDS011;67067;46.850;7.578;2023-03-31T06:35:20;22.52;;;9.93;;
77870;SDS011;67067;46.850;7.578;2023-03-31T06:37:23;17.52;;;8.50;;
77870;SDS011;67067;46.850;7.578;2023-03-31T06:39:27;18.60;;;8.63;;
77870;SDS011;67067;46.850;7.578;2023-03-31T06:41:30;18.85;;;8.80;;
77870;SDS011;67067;46.850;7.578;2023-03-31T06:43:35;18.48;;;8.50;;
77870;SDS011;67067;46.850;7.578;2023-03-31T06:44:37;14.98;;;8.60;;
77870;SDS011;67067;46.850;7.578;2023-03-31T06:46:40;11.15;;;5.93;;
77870;SDS011;67067;46.850;7.578;2023-03-31T06:47:42;13.80;;;7.38;;
77870;SDS011;67067;46.850;7.578;2023-03-31T06:48:46;12.63;;;6.97;;
77870;SDS011;67067;46.850;7.578;2023-03-31T06:49:48;14.68;;;6.93;;
77870;SDS011;67067;46.850;7.578;2023-03-31T06:50:50;14.13;;;7.07;;
77870;SDS011;67067;46.850;7.578;2023-03-31T06:51:51;15.70;;;7.53;;
77870;SDS011;67067;46.850;7.578;2023-03-31T06:53:55;12.35;;;6.57;;
77870;SDS011;67067;46.850;7.578;2023-03-31T06:56:00;15.18;;;6.90;;
77870;SDS011;67067;46.850;7.578;2023-03-31T06:57:02;14.70;;;6.80;;
77870;SDS011;67067;46.850;7.578;2023-03-31T06:58:04;15.82;;;7.20;;
77870;SDS011;67067;46.850;7.578;2023-03-31T06:59:09;14.23;;;6.60;;
77870;SDS011;67067;46.850;7.578;2023-03-31T07:01:12;14.50;;;6.72;;
77870;SDS011;67067;46.850;7.578;2023-03-31T07:02:14;16.80;;;6.45;;
77870;SDS011;67067;46.850;7.578;2023-03-31T07:03:16;13.20;;;6.50;;
77870;SDS011;67067;46.850;7.578;2023-03-31T07:04:19;13.60;;;6.90;;
77870;SDS011;67067;46.850;7.578;2023-03-31T07:06:29;13.18;;;6.65;;
77870;SDS011;67067;46.850;7.578;2023-03-31T07:07:31;14.32;;;6.97;;
77870;SDS011;67067;46.850;7.578;2023-03-31T07:08:34;15.35;;;6.82;;
77870;SDS011;67067;46.850;7.578;2023-03-31T07:09:36;13.52;;;6.75;;
77870;SDS011;67067;46.850;7.578;2023-03-31T07:10:38;14.38;;;6.63;;
77870;SDS011;67067;46.850;7.578;2023-03-31T07:12:41;12.47;;;6.43;;
77870;SDS011;67067;46.850;7.578;2023-03-31T07:13:43;10.93;;;5.85;;
77870;SDS011;67067;46.850;7.578;2023-03-31T07:14:47;14.32;;;6.82;;
77870;SDS011;67067;46.850;7.578;2023-03-31T07:15:48;13.85;;;6.70;;
77870;SDS011;67067;46.850;7.578;2023-03-31T07:17:54;15.27;;;6.80;;
77870;SDS011;67067;46.850;7.578;2023-03-31T07:19:02;13.52;;;6.80;;
77870;SDS011;67067;46.850;7.578;2023-03-31T07:20:09;13.68;;;6.93;;
77870;SDS011;67067;46.850;7.578;2023-03-31T07:21:15;16.73;;;7.70;;
77870;SDS011;67067;46.850;7.578;2023-03-31T07:23:18;13.57;;;7.70;;
77870;SDS011;67067;46.850;7.578;2023-03-31T07:24:21;14.55;;;7.93;;
77870;SDS011;67067;46.850;7.578;2023-03-31T07:25:27;19.08;;;9.70;;
77870;SDS011;67067;46.850;7.578;2023-03-31T07:26:29;18.75;;;8.98;;
77870;SDS011;67067;46.850;7.578;2023-03-31T07:27:33;16.95;;;7.90;;
77870;SDS011;67067;46.850;7.578;2023-03-31T07:28:35;17.25;;;8.77;;
77870;SDS011;67067;46.850;7.578;2023-03-31T07:30:38;15.20;;;8.10;;
77870;SDS011;67067;46.850;7.578;2023-03-31T07:31:41;15.75;;;8.00;;
77870;SDS011;67067;46.850;7.578;2023-03-31T07:32:45;15.50;;;8.13;;
77870;SDS011;67067;46.850;7.578;2023-03-31T07:33:48;17.55;;;8.30;;
77870;SDS011;67067;46.850;7.578;2023-03-31T07:34:50;16.75;;;8.30;;
77870;SDS011;67067;46.850;7.578;2023-03-31T07:35:54;15.60;;;8.00;;
77870;SDS011;67067;46.850;7.578;2023-03-31T07:37:12;13.57;;;7.43;;
77870;SDS011;67067;46.850;7.578;2023-03-31T07:39:16;17.60;;;7.20;;
77870;SDS011;67067;46.850;7.578;2023-03-31T07:40:20;16.17;;;7.38;;
77870;SDS011;67067;46.850;7.578;2023-03-31T07:41:24;14.25;;;7.13;;
77870;SDS011;67067;46.850;7.578;2023-03-31T07:42:26;14.75;;;7.03;;
77870;SDS011;67067;46.850;7.578;2023-03-31T07:44:32;15.95;;;7.10;;
77870;SDS011;67067;46.850;7.578;2023-03-31T07:45:34;15.38;;;6.75;;
77870;SDS011;67067;46.850;7.578;2023-03-31T07:46:39;14.40;;;7.45;;
77870;SDS011;67067;46.850;7.578;2023-03-31T07:47:41;13.95;;;6.97;;
77870;SDS011;67067;46.850;7.578;2023-03-31T07:48:45;13.57;;;6.85;;
77870;SDS011;67067;46.850;7.578;2023-03-31T07:49:48;17.08;;;7.18;;
77870;SDS011;67067;46.850;7.578;2023-03-31T07:50:50;14.57;;;6.85;;
77870;SDS011;67067;46.850;7.578;2023-03-31T07:52:01;14.90;;;6.90;;
77870;SDS011;67067;46.850;7.578;2023-03-31T07:53:03;16.52;;;7.30;;
77870;SDS011;67067;46.850;7.578;2023-03-31T07:55:09;14.43;;;6.57;;
77870;SDS011;67067;46.850;7.578;2023-03-31T07:56:12;11.95;;;6.60;;
77870;SDS011;67067;46.850;7.578;2023-03-31T07:58:17;17.40;;;7.25;;
77870;SDS011;67067;46.850;7.578;2023-03-31T07:59:21;13.02;;;6.40;;
77870;SDS011;67067;46.850;7.578;2023-03-31T08:00:23;13.80;;;6.22;;
77870;SDS011;67067;46.850;7.578;2023-03-31T08:01:25;14.00;;;6.82;;
77870;SDS011;67067;46.850;7.578;2023-03-31T08:02:29;17.33;;;7.63;;
77870;SDS011;67067;46.850;7.578;2023-03-31T08:03:31;14.40;;;7.20;;
77870;SDS011;67067;46.850;7.578;2023-03-31T08:04:34;14.07;;;7.45;;
77870;SDS011;67067;46.850;7.578;2023-03-31T08:05:36;16.67;;;7.10;;
77870;SDS011;67067;46.850;7.578;2023-03-31T08:07:41;12.38;;;6.55;;
77870;SDS011;67067;46.850;7.578;2023-03-31T08:08:45;12.90;;;6.78;;
77870;SDS011;67067;46.850;7.578;2023-03-31T08:09:47;14.52;;;6.85;;
77870;SDS011;67067;46.850;7.578;2023-03-31T08:10:50;16.45;;;7.22;;
77870;SDS011;67067;46.850;7.578;2023-03-31T08:11:52;14.02;;;7.32;;
77870;SDS011;67067;46.850;7.578;2023-03-31T08:13:56;18.50;;;8.70;;
77870;SDS011;67067;46.850;7.578;2023-03-31T08:15:59;19.40;;;8.45;;
77870;SDS011;67067;46.850;7.578;2023-03-31T08:18:03;17.65;;;8.75;;
77870;SDS011;67067;46.850;7.578;2023-03-31T08:19:05;17.58;;;8.23;;
77870;SDS011;67067;46.850;7.578;2023-03-31T08:20:07;14.40;;;7.65;;
77870;SDS011;67067;46.850;7.578;2023-03-31T08:21:13;21.27;;;8.70;;
77870;SDS011;67067;46.850;7.578;2023-03-31T08:22:14;16.95;;;8.30;;
77870;SDS011;67067;46.850;7.578;2023-03-31T08:24:18;16.17;;;7.53;;
77870;SDS011;67067;46.850;7.578;2023-03-31T08:25:20;16.63;;;8.65;;
77870;SDS011;67067;46.850;7.578;2023-03-31T08:26:24;13.18;;;7.13;;
77870;SDS011;67067;46.850;7.578;2023-03-31T08:27:26;16.00;;;7.55;;
77870;SDS011;67067;46.850;7.578;2023-03-31T08:29:29;16.08;;;7.78;;
77870;SDS011;67067;46.850;7.578;2023-03-31T08:31:35;16.70;;;8.25;;
77870;SDS011;67067;46.850;7.578;2023-03-31T08:32:37;15.38;;;7.55;;
77870;SDS011;67067;46.850;7.578;2023-03-31T08:34:43;16.85;;;7.32;;